Time;durP1;ratioP1;P1;durP2;ratioP2;P2;SDS_P1;SDS_P2;PMS_P1;PMS_P2;Temp;Humidity;BMP_temperature;BMP_pressure;BME280_temperature;BME280_humidity;BME280_pressure;Samples;Min_cycle;Max_cycle;Signal;HPM_P1;HPM_P2
2022/09/20 00:00:23;;;;;;;10.30;5.50;;;;;21.00;101056.00;;;;2076144;28;20630;-56
2022/09/20 00:01:26;;;;;;;9.00;5.23;;;;;21.00;101055.00;;;;2069448;28;20631;-57
2022/09/20 00:02:27;;;;;;;7.55;4.90;;;;;21.00;101055.00;;;;2068703;28;20221;-56
2022/09/20 00:03:27;;;;;;;7.63;4.93;;;;;21.00;101062.00;;;;2070417;28;20233;-57
2022/09/20 00:04:27;;;;;;;6.07;4.60;;;;;21.00;101054.00;;;;2070855;28;20217;-57
2022/09/20 00:05:28;;;;;;;7.60;5.00;;;;;21.00;101056.00;;;;2070569;28;20214;-57
2022/09/20 00:06:29;;;;;;;6.60;4.93;;;;;21.00;101058.00;;;;2070894;28;20730;-56
2022/09/20 00:07:29;;;;;;;6.23;4.93;;;;;21.00;101053.00;;;;2074486;28;20705;-57
2022/09/20 00:08:30;;;;;;;10.47;5.37;;;;;21.00;101052.00;;;;2078842;28;20460;-57
2022/09/20 00:09:30;;;;;;;6.13;4.53;;;;;21.00;101049.00;;;;2078797;28;20244;-57
2022/09/20 00:10:38;;;;;;;8.20;4.80;;;;;21.00;101049.00;;;;2078870;28;20209;-57
2022/09/20 00:11:38;;;;;;;5.93;4.82;;;;;21.00;101050.00;;;;2078689;28;20217;-57
2022/09/20 00:12:38;;;;;;;8.07;5.07;;;;;21.00;101055.00;;;;2077758;28;20236;-56
2022/09/20 00:13:39;;;;;;;8.27;5.10;;;;;21.00;101053.00;;;;2078579;28;20222;-56
2022/09/20 00:14:39;;;;;;;8.57;5.00;;;;;21.00;101051.00;;;;2078825;28;20209;-56
2022/09/20 00:15:41;;;;;;;5.50;4.60;;;;;20.30;101106.00;;;;2078810;28;20214;-57
2022/09/20 00:16:41;;;;;;;8.07;4.70;;;;;21.00;101060.00;;;;2070063;28;20713;-57
2022/09/20 00:17:42;;;;;;;5.90;4.57;;;;;21.00;101056.00;;;;2069222;28;20288;-57
2022/09/20 00:18:42;;;;;;;6.57;4.50;;;;;20.90;101055.00;;;;2078382;28;20244;-57
2022/09/20 00:19:42;;;;;;;6.80;4.20;;;;;20.90;101048.00;;;;2078979;28;20201;-56
2022/09/20 00:20:44;;;;;;;8.40;4.23;;;;;20.90;101040.00;;;;2079050;28;20206;-57
2022/09/20 00:21:45;;;;;;;8.30;4.95;;;;;21.00;101052.00;;;;2078986;28;20210;-57
2022/09/20 00:22:48;;;;;;;10.20;5.00;;;;;21.00;101050.00;;;;2078126;28;20702;-56
2022/09/20 00:23:48;;;;;;;6.80;4.15;;;;;20.90;101055.00;;;;2078135;28;20671;-57
2022/09/20 00:24:49;;;;;;;6.93;4.40;;;;;20.90;101044.00;;;;2078807;28;20225;-57
2022/09/20 00:26:00;;;;;;;7.17;4.27;;;;;20.90;101050.00;;;;2075335;28;20218;-56
2022/09/20 00:27:00;;;;;;;6.90;4.10;;;;;20.90;101048.00;;;;2074461;28;20213;-57
2022/09/20 00:28:01;;;;;;;6.40;4.07;;;;;20.90;101062.00;;;;2076897;28;20267;-56
2022/09/20 00:29:01;;;;;;;7.67;4.30;;;;;20.90;101054.00;;;;2078413;28;20224;-57
2022/09/20 00:30:02;;;;;;;8.57;4.80;;;;;20.90;101055.00;;;;2078285;28;20586;-56
2022/09/20 00:31:02;;;;;;;7.87;4.30;;;;;20.90;101055.00;;;;2078075;28;20303;-56
2022/09/20 00:32:02;;;;;;;7.03;4.03;;;;;20.90;101055.00;;;;2078039;28;20260;-57
2022/09/20 00:33:03;;;;;;;5.37;3.90;;;;;20.90;101050.00;;;;2078307;28;20249;-57
2022/09/20 00:35:22;;;;;;;7.95;4.35;;;;;20.90;101057.00;;;;2078468;28;20240;-56
2022/09/20 00:36:22;;;;;;;4.93;3.80;;;;;20.90;101057.00;;;;2078313;28;20213;-60
2022/09/20 00:37:22;;;;;;;6.27;3.60;;;;;20.90;101055.00;;;;2077454;28;20209;-57
2022/09/20 00:38:23;;;;;;;4.47;3.43;;;;;20.90;101081.00;;;;2078435;28;20609;-57
2022/09/20 00:39:23;;;;;;;5.73;3.60;;;;;20.90;101050.00;;;;2078341;28;20708;-58
2022/09/20 00:40:25;;;;;;;6.20;3.77;;;;;20.90;101058.00;;;;2078138;28;20707;-57
2022/09/20 00:41:26;;;;;;;8.05;4.25;;;;;20.90;101058.00;;;;2078176;28;20240;-57
2022/09/20 00:42:27;;;;;;;6.47;3.67;;;;;20.90;101061.00;;;;2078480;28;20576;-57
2022/09/20 00:43:54;;;;;;;5.13;3.40;;;;;20.90;101059.00;;;;2077231;28;20209;-57
2022/09/20 00:45:05;;;;;;;5.78;3.42;;;;;20.90;101062.00;;;;2069624;28;20222;-57
2022/09/20 00:46:08;;;;;;;6.85;3.28;;;;;20.90;101036.00;;;;2071315;28;20356;-57
2022/09/20 00:47:33;;;;;;;7.07;3.70;;;;;20.90;101066.00;;;;2067277;28;20210;-57
2022/09/20 00:48:33;;;;;;;5.40;3.25;;;;;20.90;101070.00;;;;2066386;28;20205;-56
2022/09/20 00:49:33;;;;;;;4.80;3.00;;;;;20.90;101068.00;;;;2079109;28;20245;-56
2022/09/20 00:50:49;;;;;;;5.47;3.50;;;;;20.90;101070.00;;;;2070872;28;20224;-57
2022/09/20 00:51:52;;;;;;;6.93;3.80;;;;;20.90;101065.00;;;;2072851;28;20252;-57
2022/09/20 00:52:56;;;;;;;6.30;3.20;;;;;20.90;101057.00;;;;2070938;28;21170;-56
2022/09/20 00:53:57;;;;;;;5.43;3.10;;;;;20.90;101042.00;;;;2071379;28;20313;-55
2022/09/20 00:54:58;;;;;;;6.47;3.40;;;;;20.90;101074.00;;;;2071107;28;20206;-55
2022/09/20 00:56:03;;;;;;;4.20;3.00;;;;;20.90;101073.00;;;;2070883;28;20300;-56
2022/09/20 00:57:03;;;;;;;3.40;2.83;;;;;20.80;101072.00;;;;2079382;28;20266;-56
2022/09/20 00:58:04;;;;;;;7.10;3.60;;;;;20.90;101061.00;;;;2079336;28;20681;-57
2022/09/20 00:59:10;;;;;;;3.93;2.73;;;;;20.90;101061.00;;;;2071378;28;20214;-57
2022/09/20 01:00:10;;;;;;;5.50;3.10;;;;;20.90;101068.00;;;;2072353;28;20214;-57
2022/09/20 01:01:11;;;;;;;4.83;2.80;;;;;20.90;101064.00;;;;2079798;28;20268;-56
2022/09/20 01:02:15;;;;;;;4.23;3.00;;;;;20.90;101062.00;;;;2080327;28;20237;-57
2022/09/20 01:03:15;;;;;;;5.07;3.28;;;;;20.90;101071.00;;;;2079387;28;20205;-57
2022/09/20 01:04:15;;;;;;;5.00;3.00;;;;;20.90;101066.00;;;;2071340;28;20202;-56
2022/09/20 01:05:16;;;;;;;5.30;3.30;;;;;20.90;101054.00;;;;2079509;28;20292;-57
2022/09/20 01:06:16;;;;;;;3.43;2.50;;;;;20.90;101063.00;;;;2087475;28;20303;-57
2022/09/20 01:07:21;;;;;;;4.87;2.60;;;;;20.90;101070.00;;;;2079492;28;20244;-57
2022/09/20 01:08:23;;;;;;;4.80;2.70;;;;;20.90;101065.00;;;;2079595;28;20651;-57
2022/09/20 01:09:23;;;;;;;4.53;3.00;;;;;20.90;101049.00;;;;2071777;28;20265;-57
2022/09/20 01:10:24;;;;;;;5.27;2.80;;;;;20.90;101062.00;;;;2079393;28;20252;-57
2022/09/20 01:11:24;;;;;;;3.87;2.57;;;;;20.90;101036.00;;;;2079538;28;20248;-57
2022/09/20 01:12:26;;;;;;;5.43;3.37;;;;;20.90;101050.00;;;;2071189;28;20229;-57
2022/09/20 01:13:26;;;;;;;4.38;2.80;;;;;20.90;101048.00;;;;2079545;28;20709;-56
2022/09/20 01:14:26;;;;;;;5.33;2.70;;;;;20.80;101056.00;;;;2079157;28;20218;-57
2022/09/20 01:15:27;;;;;;;5.87;2.90;;;;;20.90;101041.00;;;;2079367;28;20705;-57
2022/09/20 01:16:28;;;;;;;3.60;2.73;;;;;20.90;101027.00;;;;2079189;28;20622;-57
2022/09/20 01:17:29;;;;;;;5.30;2.87;;;;;20.80;101060.00;;;;2070120;28;20219;-57
2022/09/20 01:18:30;;;;;;;4.90;2.53;;;;;20.80;101050.00;;;;2065138;28;20465;-55
2022/09/20 01:19:39;;;;;;;5.10;2.90;;;;;20.90;101056.00;;;;2067633;28;20513;-54
2022/09/20 01:20:40;;;;;;;4.28;2.70;;;;;20.90;101057.00;;;;2075752;28;20782;-55
2022/09/20 01:21:41;;;;;;;4.28;3.00;;;;;20.90;101061.00;;;;2076298;28;20241;-55
2022/09/20 01:22:50;;;;;;;4.70;2.87;;;;;20.80;101055.00;;;;2075878;28;20714;-56
2022/09/20 01:24:04;;;;;;;4.28;2.90;;;;;20.80;101060.00;;;;2076581;28;20221;-54
2022/09/20 01:25:15;;;;;;;7.38;3.30;;;;;20.80;101062.00;;;;2081802;28;20233;-55
2022/09/20 01:26:47;;;;;;;3.83;2.83;;;;;20.90;101065.00;;;;2079288;28;20217;-56
2022/09/20 01:27:48;;;;;;;4.72;2.90;;;;;20.80;101040.00;;;;2081035;28;20281;-56
2022/09/20 01:28:49;;;;;;;4.20;2.22;;;;;20.80;101056.00;;;;2075332;28;20222;-55
2022/09/20 01:30:08;;;;;;;3.83;2.23;;;;;20.80;101058.00;;;;2067338;28;20293;-57
2022/09/20 01:31:24;;;;;;;5.05;2.50;;;;;20.80;101059.00;;;;2077996;28;20502;-57
2022/09/20 01:32:25;;;;;;;3.38;2.53;;;;;20.80;101060.00;;;;2077066;28;20230;-54
2022/09/20 01:33:27;;;;;;;4.85;2.65;;;;;20.90;101060.00;;;;2076131;28;20241;-56
2022/09/20 01:34:42;;;;;;;5.63;3.05;;;;;20.80;101056.00;;;;2075097;28;20257;-56
2022/09/20 01:35:43;;;;;;;3.38;2.08;;;;;20.80;101061.00;;;;2076982;28;20222;-56
2022/09/20 01:36:53;;;;;;;5.18;2.55;;;;;20.80;101057.00;;;;2074610;28;20410;-56
2022/09/20 01:38:04;;;;;;;4.13;2.40;;;;;20.80;101056.00;;;;2067288;28;20574;-56
2022/09/20 01:39:10;;;;;;;4.75;2.85;;;;;20.80;101059.00;;;;2062338;28;20795;-56
2022/09/20 01:40:15;;;;;;;4.90;2.58;;;;;20.80;101066.00;;;;2076679;28;20206;-58
2022/09/20 01:41:55;;;;;;;4.25;2.35;;;;;20.80;101076.00;;;;2082734;28;20212;-57
2022/09/20 01:43:10;;;;;;;4.10;2.22;;;;;20.80;101071.00;;;;2080366;28;20580;-56
2022/09/20 01:44:38;;;;;;;3.58;2.50;;;;;20.80;101074.00;;;;2076921;28;20221;-54
2022/09/20 01:45:40;;;;;;;5.35;2.90;;;;;20.80;101071.00;;;;2079005;28;20697;-57
2022/09/20 01:46:41;;;;;;;5.13;2.30;;;;;20.80;101061.00;;;;2077178;28;20254;-54
2022/09/20 01:47:58;;;;;;;4.53;2.17;;;;;20.80;101064.00;;;;2082709;28;20240;-56
2022/09/20 01:49:21;;;;;;;3.60;2.25;;;;;20.80;101062.00;;;;2083718;28;20308;-55
2022/09/20 01:50:34;;;;;;;4.45;2.42;;;;;20.80;101069.00;;;;2072284;28;20963;-55
2022/09/20 01:51:53;;;;;;;3.33;2.10;;;;;20.80;101063.00;;;;2083531;28;20982;-56
2022/09/20 01:53:12;;;;;;;4.90;2.53;;;;;20.80;101067.00;;;;2082891;28;20228;-57
2022/09/20 01:54:30;;;;;;;4.80;2.35;;;;;20.80;101065.00;;;;2074597;28;20678;-57
2022/09/20 01:55:47;;;;;;;4.90;2.40;;;;;20.80;101068.00;;;;2075121;28;20268;-54
2022/09/20 01:57:03;;;;;;;5.10;2.40;;;;;20.80;101065.00;;;;2081629;28;20229;-56
2022/09/20 01:58:37;;;;;;;3.67;2.33;;;;;20.80;101065.00;;;;2067802;28;20220;-56
2022/09/20 02:00:05;;;;;;;3.70;2.50;;;;;20.80;101058.00;;;;2080019;28;20296;-55
2022/09/20 02:01:41;;;;;;;5.30;2.17;;;;;20.80;101056.00;;;;2083023;28;20297;-55
2022/09/20 02:03:01;;;;;;;3.55;2.42;;;;;20.80;101058.00;;;;2069457;28;20249;-55
2022/09/20 02:04:17;;;;;;;4.50;2.30;;;;;20.80;101057.00;;;;2082300;28;20420;-55
2022/09/20 02:05:57;;;;;;;3.55;1.85;;;;;20.80;101057.00;;;;2076750;28;20244;-57
2022/09/20 02:07:11;;;;;;;4.35;2.30;;;;;20.80;101056.00;;;;2074081;28;20217;-56
2022/09/20 02:08:42;;;;;;;3.40;2.03;;;;;20.80;101059.00;;;;2070881;28;20221;-57
2022/09/20 02:10:13;;;;;;;3.53;2.20;;;;;20.70;101053.00;;;;2074767;28;20235;-56
2022/09/20 02:11:15;;;;;;;3.50;2.42;;;;;20.80;101068.00;;;;2079227;28;20214;-56
2022/09/20 02:12:45;;;;;;;7.18;2.85;;;;;20.80;101059.00;;;;2078567;28;20273;-56
2022/09/20 02:14:03;;;;;;;3.63;2.00;;;;;20.80;101054.00;;;;2074416;28;20308;-56
2022/09/20 02:15:22;;;;;;;5.03;2.60;;;;;20.70;101054.00;;;;2075758;28;20763;-56
2022/09/20 02:16:31;;;;;;;4.60;2.63;;;;;20.80;101052.00;;;;2079345;28;20216;-56
2022/09/20 02:17:45;;;;;;;5.30;2.20;;;;;20.70;101055.00;;;;2078985;28;20213;-56
2022/09/20 02:19:13;;;;;;;4.05;2.20;;;;;20.70;101052.00;;;;2079652;28;20213;-57
2022/09/20 02:20:16;;;;;;;3.63;2.30;;;;;20.80;101053.00;;;;2079892;28;20209;-56
2022/09/20 02:21:31;;;;;;;2.60;1.77;;;;;20.80;101033.00;;;;2072986;28;20288;-56
2022/09/20 02:22:48;;;;;;;3.20;2.13;;;;;20.80;101059.00;;;;2071001;28;20214;-56
2022/09/20 02:24:00;;;;;;;3.17;1.98;;;;;20.80;101055.00;;;;2075786;28;20248;-56
2022/09/20 02:25:07;;;;;;;3.47;2.10;;;;;20.70;101053.00;;;;2080590;28;20218;-57
2022/09/20 02:26:32;;;;;;;3.42;2.10;;;;;20.70;101054.00;;;;2071495;28;20238;-56
2022/09/20 02:28:11;;;;;;;4.53;2.00;;;;;20.70;101059.00;;;;2075590;28;20218;-57
2022/09/20 02:29:15;;;;;;;4.15;2.00;;;;;20.70;101054.00;;;;2078604;28;20724;-56
2022/09/20 02:30:21;;;;;;;5.03;2.63;;;;;20.80;101050.00;;;;2074921;28;20217;-56
2022/09/20 02:31:37;;;;;;;4.35;2.47;;;;;20.70;101052.00;;;;2071425;28;20210;-56
2022/09/20 02:32:55;;;;;;;4.35;2.00;;;;;20.70;101050.00;;;;2068288;28;20242;-56
2022/09/20 02:34:04;;;;;;;5.22;2.40;;;;;20.70;101058.00;;;;2074211;28;20222;-55
2022/09/20 02:35:26;;;;;;;3.75;2.03;;;;;20.70;101051.00;;;;2069271;28;20265;-56
2022/09/20 02:36:34;;;;;;;4.15;2.05;;;;;20.70;101069.00;;;;2070778;28;20214;-56
2022/09/20 02:38:08;;;;;;;3.33;2.15;;;;;20.70;101065.00;;;;2061569;28;20625;-55
2022/09/20 02:39:14;;;;;;;2.92;2.00;;;;;20.70;101064.00;;;;2075225;28;20221;-55
2022/09/20 02:40:48;;;;;;;3.92;1.70;;;;;20.70;101049.00;;;;2077664;28;20221;-56
2022/09/20 02:42:07;;;;;;;4.25;1.90;;;;;20.70;101057.00;;;;2077691;28;20751;-55
2022/09/20 02:43:08;;;;;;;3.72;1.83;;;;;20.70;101051.00;;;;2070217;28;20241;-55
2022/09/20 02:44:08;;;;;;;3.43;2.00;;;;;20.70;101052.00;;;;2071516;28;20225;-56
2022/09/20 02:45:17;;;;;;;2.70;1.70;;;;;20.70;101055.00;;;;2075780;28;20633;-56
2022/09/20 02:46:33;;;;;;;2.85;1.60;;;;;20.70;101053.00;;;;2078768;28;20213;-56
2022/09/20 02:47:42;;;;;;;3.25;2.20;;;;;20.70;101049.00;;;;2071372;28;20831;-55
2022/09/20 02:49:00;;;;;;;4.25;2.20;;;;;20.70;101058.00;;;;2075613;28;20224;-56
2022/09/20 02:50:13;;;;;;;3.83;1.92;;;;;20.70;101061.00;;;;2077698;28;20236;-57
2022/09/20 02:51:24;;;;;;;3.80;2.45;;;;;20.70;101026.00;;;;2070545;28;20238;-55
2022/09/20 02:52:48;;;;;;;4.45;1.90;;;;;20.70;101055.00;;;;2076228;28;20236;-56
2022/09/20 02:54:12;;;;;;;2.67;1.80;;;;;20.70;101063.00;;;;2079168;28;20312;-55
2022/09/20 02:55:39;;;;;;;4.50;2.28;;;;;20.70;101062.00;;;;2078580;28;20221;-56
2022/09/20 02:56:46;;;;;;;4.05;1.80;;;;;20.70;101055.00;;;;2073778;28;22550;-56
2022/09/20 02:58:04;;;;;;;4.07;2.00;;;;;20.70;101077.00;;;;2072903;28;20214;-56
2022/09/20 02:59:18;;;;;;;4.35;2.15;;;;;20.70;101054.00;;;;2078723;28;20213;-56
2022/09/20 03:00:23;;;;;;;3.00;1.65;;;;;20.70;101059.00;;;;2079201;28;20304;-56
2022/09/20 03:01:23;;;;;;;3.42;2.03;;;;;20.70;101050.00;;;;2062757;28;20277;-56
2022/09/20 03:02:25;;;;;;;3.37;2.00;;;;;20.70;101058.00;;;;2071028;28;20218;-56
2022/09/20 03:03:44;;;;;;;3.28;1.90;;;;;20.70;101058.00;;;;2079556;28;20292;-56
2022/09/20 03:05:22;;;;;;;3.10;1.90;;;;;20.70;101054.00;;;;2075747;28;20637;-56
2022/09/20 03:06:31;;;;;;;2.80;2.15;;;;;20.70;101051.00;;;;2072797;28;20229;-56
2022/09/20 03:07:50;;;;;;;2.67;2.00;;;;;20.70;101057.00;;;;2077671;28;20233;-57
2022/09/20 03:08:59;;;;;;;2.75;1.83;;;;;20.70;101058.00;;;;2079054;28;20213;-56
2022/09/20 03:10:27;;;;;;;4.55;2.47;;;;;20.70;101049.00;;;;2078568;28;20245;-56
2022/09/20 03:11:43;;;;;;;4.05;2.13;;;;;20.70;101057.00;;;;2077823;28;20213;-56
2022/09/20 03:12:56;;;;;;;3.15;1.98;;;;;20.70;101057.00;;;;2070280;28;20217;-56
2022/09/20 03:14:09;;;;;;;2.90;1.63;;;;;20.70;101053.00;;;;2072134;28;20277;-57
2022/09/20 03:15:30;;;;;;;3.40;1.95;;;;;20.70;101055.00;;;;2079044;28;20688;-57
2022/09/20 03:16:48;;;;;;;2.90;2.05;;;;;20.70;101056.00;;;;2074143;28;20221;-56
2022/09/20 03:18:09;;;;;;;3.75;1.90;;;;;20.60;101055.00;;;;2071862;28;20797;-57
2022/09/20 03:19:32;;;;;;;2.95;2.10;;;;;20.70;101050.00;;;;2069418;28;20223;-56
2022/09/20 03:20:40;;;;;;;4.57;2.50;;;;;20.60;101051.00;;;;2071943;28;20213;-56
2022/09/20 03:22:04;;;;;;;2.45;1.70;;;;;20.70;101055.00;;;;2070758;28;20220;-56
2022/09/20 03:23:13;;;;;;;4.18;1.90;;;;;20.60;101051.00;;;;2076218;28;20212;-56
2022/09/20 03:24:28;;;;;;;4.68;2.38;;;;;20.60;101053.00;;;;2071931;28;20206;-57
2022/09/20 03:25:52;;;;;;;5.00;2.20;;;;;20.70;101053.00;;;;2069950;28;20217;-56
2022/09/20 03:27:15;;;;;;;3.58;1.92;;;;;20.60;101051.00;;;;2074283;28;20221;-56
2022/09/20 03:28:18;;;;;;;3.67;1.95;;;;;20.60;101058.00;;;;2077854;28;20312;-57
2022/09/20 03:29:30;;;;;;;2.95;1.83;;;;;20.60;101059.00;;;;2079080;28;20271;-56
2022/09/20 03:30:36;;;;;;;3.55;2.22;;;;;20.60;101054.00;;;;2078741;28;20221;-57
2022/09/20 03:31:36;;;;;;;3.10;1.90;;;;;20.60;101063.00;;;;2078991;28;20237;-57
2022/09/20 03:33:02;;;;;;;3.80;1.83;;;;;20.60;101032.00;;;;2079129;28;20213;-56
2022/09/20 03:34:19;;;;;;;4.20;1.90;;;;;20.60;101055.00;;;;2070139;28;20214;-56
2022/09/20 03:35:36;;;;;;;2.97;1.80;;;;;20.60;101056.00;;;;2066743;28;20209;-57
2022/09/20 03:37:00;;;;;;;4.90;2.33;;;;;20.60;101064.00;;;;2070315;28;21169;-56
2022/09/20 03:38:09;;;;;;;3.50;2.05;;;;;20.60;101058.00;;;;2075311;28;20939;-57
2022/09/20 03:39:27;;;;;;;4.75;2.00;;;;;20.60;101059.00;;;;2068376;28;20931;-57
2022/09/20 03:40:30;;;;;;;5.35;1.90;;;;;20.60;101058.00;;;;2078166;28;20296;-57
2022/09/20 03:41:49;;;;;;;4.13;2.00;;;;;20.70;101059.00;;;;2078883;28;20217;-57
2022/09/20 03:42:53;;;;;;;3.22;2.00;;;;;20.60;101059.00;;;;2078147;28;20221;-57
2022/09/20 03:43:56;;;;;;;3.42;1.70;;;;;20.60;101056.00;;;;2078432;28;20912;-56
2022/09/20 03:45:20;;;;;;;3.72;2.03;;;;;20.60;101056.00;;;;2078967;28;21060;-56
2022/09/20 03:46:27;;;;;;;3.78;2.03;;;;;20.60;101055.00;;;;2077904;28;20217;-57
2022/09/20 03:47:46;;;;;;;3.78;2.20;;;;;20.60;101057.00;;;;2076332;28;20209;-57
2022/09/20 03:49:07;;;;;;;4.28;2.00;;;;;20.60;101055.00;;;;2078588;28;20240;-57
2022/09/20 03:50:22;;;;;;;2.58;2.03;;;;;20.60;101050.00;;;;2077981;28;20588;-57
2022/09/20 03:51:28;;;;;;;3.33;2.00;;;;;20.60;101048.00;;;;2072999;28;20263;-57
2022/09/20 03:52:44;;;;;;;3.40;1.90;;;;;20.60;100937.00;;;;2069620;28;20218;-58
2022/09/20 03:54:25;;;;;;;3.60;2.08;;;;;20.60;101049.00;;;;2065412;28;20854;-56
2022/09/20 03:55:59;;;;;;;3.40;1.60;;;;;20.60;101052.00;;;;2052675;28;20226;-56
2022/09/20 03:57:33;;;;;;;3.08;2.10;;;;;20.60;101057.00;;;;2070191;28;20218;-58
2022/09/20 03:59:21;;;;;;;2.38;2.17;;;;;20.60;101054.00;;;;2074135;28;20353;-57
2022/09/20 04:00:50;;;;;;;2.78;1.67;;;;;20.60;101076.00;;;;2059076;28;20205;-56
2022/09/20 04:02:03;;;;;;;3.65;1.88;;;;;20.60;101060.00;;;;2072314;28;21153;-56
2022/09/20 04:03:41;;;;;;;2.30;1.52;;;;;20.60;101058.00;;;;2075010;28;20225;-57
2022/09/20 04:04:48;;;;;;;3.10;1.70;;;;;20.60;101056.00;;;;2078337;28;20309;-56
2022/09/20 04:06:13;;;;;;;3.67;2.08;;;;;20.60;101056.00;;;;2069857;28;20221;-56
2022/09/20 04:07:38;;;;;;;3.58;1.65;;;;;20.60;101058.00;;;;2073218;28;20213;-57
2022/09/20 04:09:07;;;;;;;3.38;1.70;;;;;20.60;101054.00;;;;2078701;28;20924;-56
2022/09/20 04:10:38;;;;;;;2.50;1.67;;;;;20.60;101062.00;;;;2068748;28;20213;-57
2022/09/20 04:12:04;;;;;;;5.93;2.28;;;;;20.60;101055.00;;;;2078263;28;20222;-56
2022/09/20 04:13:31;;;;;;;4.20;2.50;;;;;20.60;101067.00;;;;2078563;28;20206;-57
2022/09/20 04:14:44;;;;;;;3.00;2.05;;;;;20.60;101063.00;;;;2078278;28;20213;-56
2022/09/20 04:16:13;;;;;;;4.95;2.00;;;;;20.60;101062.00;;;;2065674;28;20218;-56
2022/09/20 04:17:20;;;;;;;4.10;2.25;;;;;20.60;101029.00;;;;2060582;28;20786;-57
2022/09/20 04:18:36;;;;;;;3.25;2.05;;;;;20.60;101058.00;;;;2069744;28;20237;-57
2022/09/20 04:19:44;;;;;;;2.67;2.10;;;;;20.60;101051.00;;;;2068618;28;20612;-56
2022/09/20 04:20:46;;;;;;;3.15;2.13;;;;;20.60;101046.00;;;;2068603;28;20766;-57
2022/09/20 04:21:52;;;;;;;3.38;2.20;;;;;20.60;101048.00;;;;2069205;28;20265;-56
2022/09/20 04:22:53;;;;;;;2.70;2.25;;;;;20.60;101058.00;;;;2063178;28;20270;-56
2022/09/20 04:24:00;;;;;;;3.90;2.00;;;;;20.60;101068.00;;;;2070465;28;20224;-56
2022/09/20 04:25:11;;;;;;;2.13;1.75;;;;;20.60;101062.00;;;;2066500;28;20215;-56
2022/09/20 04:26:12;;;;;;;2.50;1.85;;;;;20.60;101059.00;;;;2061529;28;20219;-57
2022/09/20 04:27:27;;;;;;;3.70;2.27;;;;;20.60;101062.00;;;;2060400;28;20203;-56
2022/09/20 04:28:33;;;;;;;3.28;1.85;;;;;20.60;101060.00;;;;2070688;28;20221;-55
2022/09/20 04:29:57;;;;;;;3.50;1.98;;;;;20.60;101055.00;;;;2077479;28;20259;-56
2022/09/20 04:31:01;;;;;;;3.55;1.98;;;;;20.60;101029.00;;;;2068939;28;20280;-57
2022/09/20 04:32:04;;;;;;;3.10;1.80;;;;;20.60;101053.00;;;;2062398;28;20246;-56
2022/09/20 04:33:21;;;;;;;3.17;2.15;;;;;20.60;101045.00;;;;2069998;28;20297;-60
2022/09/20 04:36:27;;;;;;;4.15;2.38;;;;;20.60;101067.00;;;;2066050;28;20722;-56
2022/09/20 04:36:28;;;;;;;6.78;2.17;;;;;20.60;101054.00;;;;2065985;28;20470;-56
2022/09/20 04:37:33;;;;;;;3.20;2.20;;;;;20.60;101055.00;;;;2067399;28;20690;-57
2022/09/20 04:38:34;;;;;;;4.60;1.77;;;;;20.50;101056.00;;;;2076561;28;20250;-56
2022/09/20 04:39:51;;;;;;;3.40;2.10;;;;;20.60;101059.00;;;;2086035;28;20237;-56
2022/09/20 04:41:15;;;;;;;4.45;2.60;;;;;20.60;101062.00;;;;2077667;28;20216;-56
2022/09/20 04:43:06;;;;;;;4.50;2.50;;;;;20.60;101055.00;;;;2078132;28;20298;-56
2022/09/20 04:44:10;;;;;;;5.28;2.50;;;;;20.60;101059.00;;;;2061836;28;20230;-56
2022/09/20 04:45:36;;;;;;;3.03;2.08;;;;;20.70;101060.00;;;;2077616;28;20785;-58
2022/09/20 04:46:55;;;;;;;7.85;1.80;;;;;20.70;101066.00;;;;2070559;28;20233;-57
2022/09/20 04:48:13;;;;;;;3.78;2.22;;;;;20.70;101062.00;;;;2069037;28;20222;-57
2022/09/20 04:49:32;;;;;;;2.85;2.00;;;;;20.70;101065.00;;;;2074081;28;20221;-57
2022/09/20 04:50:44;;;;;;;5.07;2.10;;;;;20.70;101064.00;;;;2071235;28;20263;-57
2022/09/20 04:52:05;;;;;;;4.57;1.90;;;;;20.80;101073.00;;;;2076323;28;20245;-56
2022/09/20 04:53:46;;;;;;;2.63;1.90;;;;;20.80;101108.00;;;;2077931;28;20225;-58
2022/09/20 04:55:04;;;;;;;2.25;1.60;;;;;20.80;101063.00;;;;2067313;28;20213;-56
2022/09/20 04:56:39;;;;;;;3.15;2.40;;;;;20.70;101052.00;;;;2075230;28;20212;-56
2022/09/20 04:58:15;;;;;;;3.33;2.10;;;;;20.80;101062.00;;;;2068199;28;20222;-57
2022/09/20 04:59:39;;;;;;;4.20;2.03;;;;;20.90;101084.00;;;;2073754;28;20228;-57
2022/09/20 05:00:59;;;;;;;5.90;2.05;;;;;20.80;101069.00;;;;2078343;28;20237;-57
2022/09/20 05:02:32;;;;;;;4.20;1.95;;;;;20.90;101067.00;;;;2078297;28;20213;-57
2022/09/20 05:03:58;;;;;;;3.50;2.00;;;;;20.80;101082.00;;;;2060716;28;20237;-57
2022/09/20 05:05:23;;;;;;;5.03;2.30;;;;;20.80;101072.00;;;;2077018;28;20213;-56
2022/09/20 05:06:33;;;;;;;4.55;2.10;;;;;20.80;101074.00;;;;2076703;28;20225;-56
2022/09/20 05:07:53;;;;;;;3.88;2.20;;;;;20.80;101072.00;;;;2068887;28;20349;-57
2022/09/20 05:08:57;;;;;;;3.70;2.10;;;;;20.80;101077.00;;;;2073915;28;20289;-56
2022/09/20 05:10:35;;;;;;;6.47;2.20;;;;;20.80;101079.00;;;;2069787;28;20272;-56
2022/09/20 05:11:47;;;;;;;1.92;1.27;;;;;20.80;101076.00;;;;2075704;28;20221;-56
2022/09/20 05:13:07;;;;;;;2.92;1.70;;;;;20.80;101079.00;;;;2076937;28;20232;-55
2022/09/20 05:14:33;;;;;;;3.28;2.00;;;;;20.80;101079.00;;;;2077271;28;20628;-55
2022/09/20 05:16:00;;;;;;;3.97;2.03;;;;;20.80;101080.00;;;;2072338;28;20657;-57
2022/09/20 05:17:51;;;;;;;5.35;2.00;;;;;20.80;101068.00;;;;2077818;28;20303;-56
2022/09/20 05:19:15;;;;;;;3.80;1.95;;;;;20.80;101069.00;;;;2048751;28;20360;-56
2022/09/20 05:20:43;;;;;;;3.42;2.03;;;;;20.90;101075.00;;;;2044833;28;20216;-56
2022/09/20 05:21:51;;;;;;;2.13;1.55;;;;;20.80;101076.00;;;;2033456;29;20785;-56
2022/09/20 05:23:10;;;;;;;2.92;2.03;;;;;20.80;101081.00;;;;2039043;28;20221;-56
2022/09/20 05:24:23;;;;;;;3.58;2.30;;;;;20.80;101076.00;;;;2055067;28;20238;-57
2022/09/20 05:25:34;;;;;;;4.05;1.98;;;;;20.80;101084.00;;;;2069236;28;20572;-56
2022/09/20 05:26:44;;;;;;;2.67;1.95;;;;;20.80;101084.00;;;;2068171;28;20226;-56
2022/09/20 05:28:22;;;;;;;3.55;2.22;;;;;20.80;101085.00;;;;2068740;28;20218;-57
2022/09/20 05:29:49;;;;;;;2.53;1.70;;;;;20.80;101084.00;;;;2077017;28;20229;-56
2022/09/20 05:31:05;;;;;;;4.80;3.17;;;;;20.80;101086.00;;;;2075076;28;20301;-56
2022/09/20 05:32:17;;;;;;;4.15;2.90;;;;;20.80;101091.00;;;;2064416;28;20218;-56
2022/09/20 05:33:39;;;;;;;4.97;3.40;;;;;20.80;101096.00;;;;2065428;28;20206;-56
2022/09/20 05:35:11;;;;;;;6.20;4.03;;;;;20.80;101095.00;;;;2078186;28;20235;-54
2022/09/20 05:36:36;;;;;;;6.90;4.07;;;;;20.80;101096.00;;;;2084702;28;20300;-55
2022/09/20 05:37:48;;;;;;;9.25;6.28;;;;;20.80;101103.00;;;;2083462;28;20225;-55
2022/09/20 05:39:07;;;;;;;9.40;6.80;;;;;20.80;101101.00;;;;2084287;28;20225;-56
2022/09/20 05:40:27;;;;;;;10.20;6.95;;;;;20.80;101100.00;;;;2084361;28;20575;-57
2022/09/20 05:41:39;;;;;;;9.23;7.03;;;;;20.80;101105.00;;;;2067661;28;20225;-55
2022/09/20 05:42:53;;;;;;;10.90;7.75;;;;;20.80;101099.00;;;;2062762;28;20286;-57
2022/09/20 05:44:31;;;;;;;9.63;8.00;;;;;20.30;101094.00;;;;2072050;28;20725;-55
2022/09/20 05:46:01;;;;;;;14.63;10.07;;;;;20.80;101100.00;;;;2084346;28;20220;-56
2022/09/20 05:47:34;;;;;;;12.30;9.70;;;;;20.80;101102.00;;;;2084281;28;20281;-56
2022/09/20 05:49:12;;;;;;;14.20;10.82;;;;;20.80;101094.00;;;;2062224;28;20215;-56
2022/09/20 05:50:50;;;;;;;18.33;12.65;;;;;20.80;101100.00;;;;2067332;28;20206;-56
2022/09/20 05:52:15;;;;;;;18.08;12.82;;;;;20.80;101099.00;;;;2079478;28;20214;-56
2022/09/20 05:53:33;;;;;;;19.67;12.95;;;;;20.80;101105.00;;;;2071758;28;20622;-56
2022/09/20 05:54:45;;;;;;;16.95;12.40;;;;;20.80;101104.00;;;;2070735;28;20270;-55
2022/09/20 05:56:02;;;;;;;18.45;13.50;;;;;20.80;101107.00;;;;2071177;28;20361;-56
2022/09/20 05:57:21;;;;;;;21.23;14.52;;;;;20.80;101104.00;;;;2075059;28;20544;-56
2022/09/20 05:58:35;;;;;;;20.60;14.35;;;;;20.80;101103.00;;;;2076737;28;20275;-56
2022/09/20 05:59:49;;;;;;;23.90;15.25;;;;;20.80;101105.00;;;;2078464;28;20205;-56
2022/09/20 06:00:56;;;;;;;22.15;15.82;;;;;20.80;101108.00;;;;2073030;28;20217;-56
2022/09/20 06:02:09;;;;;;;25.20;15.98;;;;;20.80;101111.00;;;;2072069;28;20675;-56
2022/09/20 06:03:16;;;;;;;27.50;17.38;;;;;20.90;101102.00;;;;2078045;28;20233;-55
2022/09/20 06:04:29;;;;;;;19.08;14.40;;;;;20.80;101111.00;;;;2069070;28;20262;-54